Oriska, North Dakota
Current Conditions -  °F | °C
As of 11:35 AM on Wednesday 26 Nov 2014 (Local Time) from KBAC Reporting Station
Overcast Overcast  
Wind Chill: -12°   Ceiling: 6000
Heat Index:   Visibility: 10mi
Dew Point: -4°   Wind: 10mph
Humidity: 72%   Direction: 350°N
Pressure: 30.38"   Gusts: NA
Location:  46.93°N, 97.79°W
Report Text: KBAC 261735Z AUTO 35009KT 10SM OVC060 M16/M20 A3038 RMK AO2
Loading
Personal Weather Stations






























Interactive Weather Map New forecast layout! Learn more

10-Day Weather Forecast

Advertisements
Track Severe Weather on mobile